KNGU/NGU METAR and TAF weather

Enter ICAO airport designator
Station Type Date Time Source
KNGU METAR 2021/01/27 10:59 UTC NOAA

KNGU 271059Z 05003KT 4SM BR OVC003 07/05 A2998 RMK AO2 SLP153 T00670050


Station Type Date Time Source
KNGU Decoded METAR 2021/01/27 10:59 UTC NOAA

Norfolk, Naval Air Station, VA, United States (KNGU) 36-56-01N 076-17-45W 8M
Jan 27, 2021 - 05:59 AM EST / 2021.01.27 1059 UTC
Wind: from the NE (050 degrees) at 3 MPH (3 KT):0
Visibility: 4 mile(s):0
Sky conditions: overcast
Weather: mist
Temperature: 44.1 F (6.7 C)
Dew Point: 41.0 F (5.0 C)
Relative Humidity: 88%
Pressure (altimeter): 29.98 in. Hg (1015 hPa)
ob: KNGU 271059Z 05003KT 4SM BR OVC003 07/05 A2998 RMK AO2 SLP153 T00670050
cycle: 11

Station Type Date Time Source
KNGU TAF 2021/01/26 23:52 UTC NOAA

TAF KNGU 2523/2623 11007KT 4800 RA BR SCT005 BKN010 OVC070 641209 540109 541008 QNH2996INS
TEMPO 2523/2602 3200 RA BR BKN004 OVC010
FM260200 10009KT 3200 RA BR BKN004 OVC010 641209 540109 541008 QNH2981INS
TEMPO 2602/2607 4800 RA BR FEW004 BKN010 OVC030
FM261500 20007KT 9999 VCSH BKN004 OVC010 600000 500000 QNH2976INS
FM262000 24006KT 9999 SCT004 BKN010 OVC025 QNH2977INS T04/2602Z T10/2614Z FN20002

Example: see airport list